createdAt,value
2022-10-23T00:01:26.519Z,90.61
2022-10-23T00:03:57.007Z,90.35
2022-10-23T00:06:27.785Z,90.44
2022-10-23T00:08:56.714Z,90.40
2022-10-23T00:11:27.326Z,90.18
2022-10-23T00:13:57.462Z,90.25
2022-10-23T00:16:25.736Z,90.29
2022-10-23T00:18:54.099Z,90.06
2022-10-23T00:21:25.185Z,90.09
2022-10-23T00:23:55.182Z,89.99
2022-10-23T00:26:23.582Z,90.21
2022-10-23T00:28:53.529Z,90.02
2022-10-23T00:31:23.381Z,90.28
2022-10-23T00:33:52.185Z,89.85
2022-10-23T00:36:22.979Z,89.78
2022-10-23T00:38:51.646Z,89.70
2022-10-23T00:41:23.635Z,89.47
2022-10-23T00:44:05.690Z,89.13
2022-10-23T00:46:34.629Z,89.49
2022-10-23T00:49:04.731Z,89.31
2022-10-23T00:51:42.437Z,88.72
2022-10-23T00:54:23.461Z,88.96
2022-10-23T00:56:55.951Z,89.05
2022-10-23T00:59:24.525Z,88.89
2022-10-23T01:01:53.331Z,89.10
2022-10-23T01:04:22.782Z,89.00
2022-10-23T01:07:01.071Z,89.00
2022-10-23T01:09:35.070Z,88.99
2022-10-23T01:12:11.818Z,89.02
2022-10-23T01:14:49.961Z,89.17
2022-10-23T01:17:26.047Z,89.07
2022-10-23T01:20:08.606Z,88.88
2022-10-23T01:23:04.270Z,88.68
2022-10-23T01:25:56.153Z,88.91
2022-10-23T01:28:30.209Z,88.87
2022-10-23T01:31:01.139Z,89.04
2022-10-23T01:33:40.599Z,89.15
2022-10-23T01:36:14.549Z,89.17
2022-10-23T01:38:47.712Z,89.20
2022-10-23T01:41:29.607Z,89.02
2022-10-23T01:44:05.878Z,88.73
2022-10-23T01:46:37.624Z,89.01
2022-10-23T01:49:12.784Z,88.75
2022-10-23T01:51:46.342Z,88.80
2022-10-23T01:54:18.213Z,88.55
2022-10-23T01:56:49.770Z,88.51
2022-10-23T01:59:25.658Z,88.66
2022-10-23T02:01:59.450Z,88.52
2022-10-23T02:04:32.251Z,88.72
2022-10-23T02:07:01.163Z,88.88
2022-10-23T02:09:29.502Z,88.50
2022-10-23T02:12:09.906Z,88.72
2022-10-23T02:14:47.119Z,88.65
2022-10-23T02:17:22.666Z,88.70
2022-10-23T02:19:58.142Z,88.32
2022-10-23T02:22:30.691Z,88.35
2022-10-23T02:25:04.479Z,88.30
2022-10-23T02:27:37.614Z,88.09
2022-10-23T02:30:13.450Z,88.07
2022-10-23T02:32:46.135Z,88.41
2022-10-23T02:35:17.116Z,88.35
2022-10-23T02:37:53.186Z,88.28
2022-10-23T02:40:31.854Z,88.25
2022-10-23T02:43:05.066Z,88.43
2022-10-23T02:45:42.072Z,88.14
2022-10-23T02:48:18.524Z,88.38
2022-10-23T02:50:55.219Z,88.35
2022-10-23T02:53:33.989Z,87.83
2022-10-23T02:56:07.538Z,87.97
2022-10-23T02:58:44.495Z,88.03
2022-10-23T03:01:18.177Z,88.38
2022-10-23T03:03:50.849Z,88.11
2022-10-23T03:06:19.319Z,88.01
2022-10-23T03:08:55.223Z,87.97
2022-10-23T03:11:26.489Z,88.15
2022-10-23T03:13:56.021Z,88.12
2022-10-23T03:16:25.780Z,88.24
2022-10-23T03:18:56.306Z,88.21
2022-10-23T03:21:25.420Z,88.33
2022-10-23T03:23:55.025Z,88.64
2022-10-23T03:26:43.567Z,88.66
2022-10-23T03:29:11.985Z,88.47
2022-10-23T03:31:47.724Z,88.41
2022-10-23T03:34:17.185Z,88.50
2022-10-23T03:36:46.465Z,88.38
2022-10-23T03:39:15.863Z,88.57
2022-10-23T03:41:44.166Z,88.57
2022-10-23T03:44:12.520Z,88.61
2022-10-23T03:46:48.047Z,88.61
2022-10-23T03:49:16.427Z,89.13
2022-10-23T03:51:51.978Z,89.04
2022-10-23T03:54:24.403Z,88.80
2022-10-23T03:56:56.519Z,88.86
2022-10-23T03:59:26.071Z,89.13
2022-10-23T04:01:56.491Z,89.10
2022-10-23T04:04:26.124Z,89.09
2022-10-23T04:06:55.195Z,89.20
2022-10-23T04:09:24.022Z,89.27
2022-10-23T04:11:52.249Z,89.03
2022-10-23T04:14:20.545Z,89.78
2022-10-23T04:16:48.789Z,89.93
2022-10-23T04:19:18.698Z,89.79
2022-10-23T04:21:46.978Z,89.85
2022-10-23T04:24:15.478Z,89.71
2022-10-23T04:26:44.059Z,89.75
2022-10-23T04:29:12.607Z,89.69
2022-10-23T04:31:41.550Z,89.88
2022-10-23T04:34:09.975Z,89.99
2022-10-23T04:36:39.622Z,90.06
2022-10-23T04:39:10.980Z,89.84
2022-10-23T04:41:40.078Z,89.78
2022-10-23T04:44:08.795Z,90.00
2022-10-23T04:46:40.145Z,89.99
2022-10-23T04:49:08.506Z,89.95
2022-10-23T04:51:52.869Z,89.95
2022-10-23T04:54:44.503Z,89.78
2022-10-23T04:57:30.052Z,89.51
2022-10-23T05:00:03.748Z,89.77
2022-10-23T05:02:38.271Z,89.42
2022-10-23T05:05:08.116Z,89.61
2022-10-23T05:07:39.276Z,89.27
2022-10-23T05:10:31.298Z,89.34
2022-10-23T05:13:07.571Z,89.28
2022-10-23T05:15:36.198Z,89.11
2022-10-23T05:18:12.717Z,89.02
2022-10-23T05:20:41.760Z,89.00
2022-10-23T05:23:16.352Z,88.62
2022-10-23T05:25:53.769Z,88.99
2022-10-23T05:28:23.259Z,88.66
2022-10-23T05:30:51.831Z,88.21
2022-10-23T05:33:20.291Z,88.45
2022-10-23T05:35:51.217Z,88.53
2022-10-23T05:38:21.028Z,88.41
2022-10-23T05:40:52.463Z,88.68
2022-10-23T05:43:22.102Z,88.17
2022-10-23T05:45:54.186Z,88.55
2022-10-23T05:48:34.560Z,88.71
2022-10-23T05:51:23.393Z,88.60
2022-10-23T05:54:13.265Z,88.19
2022-10-23T05:57:00.278Z,88.49
2022-10-23T05:59:46.345Z,88.31
2022-10-23T06:02:34.577Z,88.26
2022-10-23T06:05:12.662Z,88.02
2022-10-23T06:07:59.820Z,87.93
2022-10-23T06:10:29.803Z,88.14
2022-10-23T06:13:01.240Z,87.87
2022-10-23T06:15:30.473Z,87.75
2022-10-23T06:18:04.930Z,87.42
2022-10-23T06:20:38.358Z,87.41
2022-10-23T06:23:11.888Z,87.71
2022-10-23T06:26:01.813Z,87.64
2022-10-23T06:28:41.034Z,87.64
2022-10-23T06:31:11.137Z,87.79
2022-10-23T06:33:39.463Z,87.56
2022-10-23T06:36:10.744Z,87.68
2022-10-23T06:38:41.921Z,87.42
2022-10-23T06:41:15.105Z,87.34
2022-10-23T06:43:44.991Z,87.57
2022-10-23T06:46:21.379Z,87.76
2022-10-23T06:49:05.123Z,87.61
2022-10-23T06:51:39.745Z,87.46
2022-10-23T06:54:12.511Z,87.51
2022-10-23T06:56:51.329Z,87.17
2022-10-23T06:59:23.855Z,87.11
2022-10-23T07:04:23.782Z,87.21
2022-10-23T07:06:51.990Z,87.03
2022-10-23T07:09:26.607Z,87.09
2022-10-23T07:11:56.278Z,86.85
2022-10-23T07:14:40.759Z,86.84
2022-10-23T07:17:09.256Z,87.06
2022-10-23T07:19:37.482Z,87.20
2022-10-23T07:22:13.270Z,87.40
2022-10-23T07:24:44.254Z,87.25
2022-10-23T07:27:22.620Z,87.18
2022-10-23T07:29:57.343Z,86.96
2022-10-23T07:32:28.220Z,87.02
2022-10-23T07:35:22.791Z,87.28
2022-10-23T07:37:56.756Z,87.20
2022-10-23T07:40:25.295Z,86.97
2022-10-23T07:42:58.174Z,86.62
2022-10-23T07:45:27.461Z,86.91
2022-10-23T07:47:55.714Z,87.14
2022-10-23T07:50:27.375Z,87.17
2022-10-23T07:52:57.251Z,87.11
2022-10-23T07:55:34.177Z,86.93
2022-10-23T07:58:12.558Z,86.96
2022-10-23T08:00:45.314Z,86.83
2022-10-23T08:03:24.500Z,86.85
2022-10-23T08:05:54.788Z,86.54
2022-10-23T08:08:24.538Z,86.29
2022-10-23T08:10:57.300Z,86.39
2022-10-23T08:13:33.061Z,86.50
2022-10-23T08:16:05.878Z,86.55
2022-10-23T08:18:53.586Z,86.56
2022-10-23T08:21:22.148Z,86.70
2022-10-23T08:23:55.610Z,86.67
2022-10-23T08:26:25.813Z,86.60
2022-10-23T08:28:56.175Z,86.23
2022-10-23T08:31:25.579Z,86.07
2022-10-23T08:34:22.968Z,86.30
2022-10-23T08:36:54.343Z,86.33
2022-10-23T08:39:22.616Z,86.48
2022-10-23T08:42:26.101Z,86.36
2022-10-23T08:45:06.318Z,86.28
2022-10-23T08:47:42.205Z,86.17
2022-10-23T08:50:34.058Z,86.17
2022-10-23T08:53:08.348Z,86.26
2022-10-23T08:55:39.721Z,85.91
2022-10-23T08:58:15.405Z,86.24
2022-10-23T09:00:47.702Z,85.79
2022-10-23T09:03:16.737Z,86.06
2022-10-23T09:05:56.023Z,85.87
2022-10-23T09:08:35.763Z,86.29
2022-10-23T09:11:08.805Z,85.97
2022-10-23T09:14:10.002Z,86.23
2022-10-23T09:16:52.429Z,86.06
2022-10-23T09:19:25.391Z,86.04
2022-10-23T09:21:54.344Z,85.45
2022-10-23T09:24:24.591Z,85.82
2022-10-23T09:26:54.876Z,85.59
2022-10-23T09:29:26.074Z,85.57
2022-10-23T09:31:57.647Z,85.16
2022-10-23T09:34:28.001Z,85.18
2022-10-23T09:36:58.185Z,85.27
2022-10-23T09:39:30.383Z,85.20
2022-10-23T09:41:59.728Z,84.74
2022-10-23T09:44:29.852Z,84.59
2022-10-23T09:47:11.386Z,84.38
2022-10-23T09:49:41.790Z,84.29
2022-10-23T09:52:24.746Z,84.13
2022-10-23T09:54:56.984Z,84.14
2022-10-23T09:57:30.566Z,84.14
2022-10-23T10:00:02.398Z,83.63
2022-10-23T10:02:42.522Z,83.85
2022-10-23T10:05:32.666Z,83.41
2022-10-23T10:08:11.925Z,83.32
2022-10-23T10:10:46.878Z,83.60
2022-10-23T10:13:37.401Z,83.82
2022-10-23T10:16:12.531Z,83.41
2022-10-23T10:18:47.319Z,83.75
2022-10-23T10:21:22.346Z,83.75
2022-10-23T10:24:00.652Z,83.70
2022-10-23T10:26:36.258Z,83.98
2022-10-23T10:29:18.242Z,83.68
2022-10-23T10:31:58.491Z,83.38
2022-10-23T10:34:34.063Z,83.92
2022-10-23T10:37:14.293Z,83.56
2022-10-23T10:39:49.093Z,83.51
2022-10-23T10:42:43.571Z,83.10
2022-10-23T10:45:31.572Z,82.77
2022-10-23T10:48:16.981Z,82.58
2022-10-23T10:51:16.786Z,82.47
2022-10-23T10:54:11.361Z,82.94
2022-10-23T10:56:43.087Z,82.89
2022-10-23T10:59:18.538Z,82.87
2022-10-23T11:01:53.808Z,82.83
2022-10-23T11:04:33.425Z,82.26
2022-10-23T11:07:08.751Z,82.23
2022-10-23T11:09:37.154Z,81.49
2022-10-23T11:12:05.916Z,81.69
2022-10-23T11:14:35.892Z,81.90
2022-10-23T11:17:09.317Z,81.23
2022-10-23T11:19:42.407Z,81.07
2022-10-23T11:22:21.079Z,81.00
2022-10-23T11:25:19.475Z,81.25
2022-10-23T11:28:10.597Z,81.41
2022-10-23T11:30:55.821Z,80.73
2022-10-23T11:33:51.189Z,80.49
2022-10-23T11:36:22.685Z,80.68
2022-10-23T11:38:59.258Z,80.82
2022-10-23T11:41:34.173Z,80.85
2022-10-23T11:44:05.814Z,80.90
2022-10-23T11:46:40.622Z,80.79
2022-10-23T11:49:22.402Z,80.14
2022-10-23T11:52:01.814Z,79.94
2022-10-23T11:54:31.786Z,80.73
2022-10-23T11:57:12.592Z,79.75
2022-10-23T11:59:55.863Z,79.90
2022-10-23T12:02:34.169Z,79.93
2022-10-23T12:05:06.799Z,79.66
2022-10-23T12:07:38.688Z,78.97
2022-10-23T12:10:20.987Z,79.05
2022-10-23T12:12:57.754Z,78.94
2022-10-23T12:15:30.481Z,78.06
2022-10-23T12:18:14.758Z,78.28
2022-10-23T12:20:49.574Z,77.87
2022-10-23T12:23:31.113Z,78.17
2022-10-23T12:26:20.569Z,78.39
2022-10-23T12:28:58.387Z,78.26
2022-10-23T12:31:38.564Z,78.16
2022-10-23T12:34:19.921Z,77.96
2022-10-23T12:37:04.794Z,78.17
2022-10-23T12:39:36.420Z,77.54
2022-10-23T12:42:07.886Z,77.91
2022-10-23T12:44:36.139Z,78.22
2022-10-23T12:47:05.826Z,78.21
2022-10-23T12:49:35.658Z,77.99
2022-10-23T12:52:06.534Z,77.77
2022-10-23T12:54:40.829Z,77.90
2022-10-23T12:57:21.172Z,77.96
2022-10-23T12:59:52.592Z,78.44
2022-10-23T13:02:25.968Z,78.36
2022-10-23T13:04:56.165Z,78.79
2022-10-23T13:07:27.390Z,78.77
2022-10-23T13:09:59.445Z,78.99
2022-10-23T13:12:34.840Z,79.01
2022-10-23T13:15:14.942Z,78.94
2022-10-23T13:17:45.493Z,78.50
2022-10-23T13:20:26.488Z,78.69
2022-10-23T13:23:00.751Z,78.36
2022-10-23T13:25:31.884Z,78.51
2022-10-23T13:28:24.785Z,78.52
2022-10-23T13:31:02.754Z,78.38
2022-10-23T13:33:35.941Z,78.86
2022-10-23T13:36:07.372Z,78.62
2022-10-23T13:38:37.644Z,78.80
2022-10-23T13:41:12.561Z,79.29
2022-10-23T13:43:43.245Z,79.09
2022-10-23T13:46:16.087Z,78.75
2022-10-23T13:48:44.460Z,79.33
2022-10-23T13:51:15.245Z,79.54
2022-10-23T13:53:43.675Z,79.55
2022-10-23T13:56:13.818Z,79.48
2022-10-23T13:58:43.694Z,79.90
2022-10-23T14:01:21.879Z,79.67
2022-10-23T14:03:50.327Z,79.73
2022-10-23T14:06:18.626Z,80.24
2022-10-23T14:08:47.364Z,79.84
2022-10-23T14:11:18.218Z,80.26
2022-10-23T14:13:48.739Z,80.02
2022-10-23T14:16:19.551Z,79.93
2022-10-23T14:18:47.974Z,80.22
2022-10-23T14:21:20.017Z,80.69
2022-10-23T14:23:49.143Z,80.45
2022-10-23T14:26:19.396Z,80.37
2022-10-23T14:28:49.538Z,80.33
2022-10-23T14:31:18.919Z,79.61
2022-10-23T14:33:52.937Z,79.96
2022-10-23T14:36:22.026Z,80.42
2022-10-23T14:38:55.473Z,80.31
2022-10-23T14:43:55.234Z,80.77
2022-10-23T14:46:25.170Z,80.71
2022-10-23T14:48:57.497Z,80.96
2022-10-23T14:51:30.456Z,80.66
2022-10-23T14:54:01.688Z,80.72
2022-10-23T14:56:31.813Z,81.07
2022-10-23T14:59:03.738Z,80.88
2022-10-23T15:01:32.958Z,80.84
2022-10-23T15:04:01.258Z,81.13
2022-10-23T15:06:29.583Z,80.90
2022-10-23T15:08:58.029Z,81.34
2022-10-23T15:11:27.474Z,81.69
2022-10-23T15:13:56.614Z,81.73
2022-10-23T15:16:26.414Z,81.73
2022-10-23T15:18:54.760Z,82.02
2022-10-23T15:21:23.115Z,82.32
2022-10-23T15:23:51.323Z,82.21
2022-10-23T15:26:23.138Z,81.92
2022-10-23T15:28:55.099Z,82.25
2022-10-23T15:31:43.475Z,81.66
2022-10-23T15:34:13.828Z,82.68
2022-10-23T15:36:42.729Z,82.47
2022-10-23T15:39:12.766Z,82.69
2022-10-23T15:41:42.776Z,82.72
2022-10-23T15:44:15.351Z,82.48
2022-10-23T15:46:45.124Z,82.74
2022-10-23T15:49:14.229Z,82.49
2022-10-23T15:51:43.451Z,82.18
2022-10-23T15:54:16.644Z,82.35
2022-10-23T15:56:46.409Z,82.68
2022-10-23T15:59:14.781Z,82.92
2022-10-23T16:01:44.850Z,82.43
2022-10-23T16:04:13.414Z,82.61
2022-10-23T16:06:41.741Z,82.99
2022-10-23T16:09:10.132Z,82.92
2022-10-23T16:11:40.006Z,82.80
2022-10-23T16:14:11.867Z,82.64
2022-10-23T16:16:40.156Z,82.89
2022-10-23T16:19:11.631Z,82.45
2022-10-23T16:21:40.016Z,82.55
2022-10-23T16:24:09.877Z,82.88
2022-10-23T16:26:39.336Z,82.73
2022-10-23T16:29:09.722Z,82.86
2022-10-23T16:31:38.099Z,82.97
2022-10-23T16:34:07.137Z,82.71
2022-10-23T16:36:39.128Z,82.68
2022-10-23T16:39:25.889Z,82.95
2022-10-23T16:42:12.939Z,83.02
2022-10-23T16:45:04.005Z,82.74
2022-10-23T16:47:32.639Z,82.58
2022-10-23T16:50:01.008Z,82.81
2022-10-23T16:52:30.957Z,82.91
2022-10-23T16:54:59.287Z,82.81
2022-10-23T16:57:28.096Z,82.61
2022-10-23T16:59:56.719Z,82.50
2022-10-23T17:02:25.356Z,82.80
2022-10-23T17:04:53.717Z,82.52
2022-10-23T17:07:24.122Z,82.51
2022-10-23T17:09:54.115Z,82.77
2022-10-23T17:12:22.492Z,82.61
2022-10-23T17:14:50.808Z,83.12
2022-10-23T17:17:18.998Z,83.11
2022-10-23T17:19:47.278Z,82.80
2022-10-23T17:22:16.050Z,83.11
2022-10-23T17:24:48.701Z,82.50
2022-10-23T17:27:21.655Z,82.78
2022-10-23T17:29:50.042Z,83.18
2022-10-23T17:32:18.527Z,83.18
2022-10-23T17:34:47.884Z,83.52
2022-10-23T17:37:17.314Z,83.52
2022-10-23T17:39:45.582Z,83.54
2022-10-23T17:42:13.793Z,83.40
2022-10-23T17:44:43.457Z,83.39
2022-10-23T17:47:11.762Z,83.56
2022-10-23T17:49:42.809Z,83.37
2022-10-23T17:52:15.133Z,83.72
2022-10-23T17:54:43.510Z,83.59
2022-10-23T17:57:13.883Z,83.99
2022-10-23T17:59:43.582Z,84.24
2022-10-23T18:02:13.429Z,84.17
2022-10-23T18:04:41.797Z,84.17
2022-10-23T18:07:10.097Z,84.39
2022-10-23T18:09:38.329Z,84.38
2022-10-23T18:12:06.694Z,84.47
2022-10-23T18:14:37.376Z,84.50
2022-10-23T18:17:07.431Z,84.55
2022-10-23T18:19:36.555Z,84.72
2022-10-23T18:22:05.377Z,85.10
2022-10-23T18:24:33.925Z,85.26
2022-10-23T18:27:02.547Z,85.17
2022-10-23T18:29:30.810Z,85.63
2022-10-23T18:31:59.282Z,86.04
2022-10-23T18:34:29.050Z,85.90
2022-10-23T18:36:57.347Z,85.89
2022-10-23T18:39:33.822Z,85.84
2022-10-23T18:42:02.821Z,85.93
2022-10-23T18:44:30.986Z,85.83
2022-10-23T18:47:00.787Z,86.21
2022-10-23T18:49:30.738Z,85.88
2022-10-23T18:51:59.533Z,86.20
2022-10-23T18:54:27.733Z,86.35
2022-10-23T18:56:56.303Z,86.24
2022-10-23T18:59:24.595Z,86.34
2022-10-23T19:01:53.482Z,86.51
2022-10-23T19:04:21.889Z,86.35
2022-10-23T19:06:52.173Z,86.48
2022-10-23T19:09:21.474Z,86.71
2022-10-23T19:11:50.126Z,86.72
2022-10-23T19:14:19.170Z,86.48
2022-10-23T19:16:58.443Z,86.50
2022-10-23T19:19:30.093Z,86.15
2022-10-23T19:22:00.731Z,86.16
2022-10-23T19:24:34.548Z,86.23
2022-10-23T19:27:03.855Z,86.69
2022-10-23T19:29:32.754Z,86.37
2022-10-23T19:32:02.080Z,86.46
2022-10-23T19:34:30.403Z,86.42
2022-10-23T19:37:00.130Z,86.49
2022-10-23T19:39:28.556Z,86.19
2022-10-23T19:41:57.735Z,86.17
2022-10-23T19:44:26.262Z,86.12
2022-10-23T19:46:54.570Z,85.95
2022-10-23T19:49:24.021Z,86.25
2022-10-23T19:51:52.511Z,86.18
2022-10-23T19:54:22.756Z,86.22
2022-10-23T19:56:51.402Z,86.33
2022-10-23T19:59:20.097Z,86.88
2022-10-23T20:01:49.419Z,86.73
2022-10-23T20:04:18.876Z,86.46
2022-10-23T20:06:48.073Z,86.81
2022-10-23T20:09:16.889Z,86.40
2022-10-23T20:11:46.521Z,86.35
2022-10-23T20:14:17.365Z,86.56
2022-10-23T20:16:48.065Z,86.32
2022-10-23T20:19:18.872Z,86.13
2022-10-23T20:21:49.305Z,86.37
2022-10-23T20:24:19.563Z,86.25
2022-10-23T20:26:52.425Z,86.16
2022-10-23T20:29:21.708Z,86.58
2022-10-23T20:31:50.050Z,86.67
2022-10-23T20:34:19.199Z,86.31
2022-10-23T20:36:49.862Z,86.24
2022-10-23T20:39:20.481Z,86.39
2022-10-23T20:41:50.162Z,86.40
2022-10-23T20:44:19.503Z,86.54
2022-10-23T20:46:47.825Z,86.89
2022-10-23T20:49:16.678Z,87.20
2022-10-23T20:51:45.154Z,87.46
2022-10-23T20:54:13.458Z,86.91
2022-10-23T20:56:42.098Z,87.15
2022-10-23T20:59:15.560Z,86.72
2022-10-23T21:01:48.684Z,86.94
2022-10-23T21:04:18.634Z,86.64
2022-10-23T21:07:08.267Z,86.87
2022-10-23T21:09:35.556Z,87.07
2022-10-23T21:12:04.782Z,87.25
2022-10-23T21:14:34.643Z,86.77
2022-10-23T21:17:03.472Z,86.69
2022-10-23T21:19:31.805Z,86.80
2022-10-23T21:22:00.045Z,87.11
2022-10-23T21:24:28.669Z,86.47
2022-10-23T21:26:56.891Z,86.19
2022-10-23T21:29:25.268Z,86.15
2022-10-23T21:31:56.516Z,86.10
2022-10-23T21:34:25.601Z,86.07
2022-10-23T21:39:42.680Z,86.47
2022-10-23T21:42:12.577Z,86.18
2022-10-23T21:44:40.933Z,86.16
2022-10-23T21:47:10.787Z,86.32
2022-10-23T21:49:39.174Z,85.89
2022-10-23T21:52:07.517Z,86.33
2022-10-23T21:54:35.834Z,86.11
2022-10-23T21:57:04.392Z,86.47
2022-10-23T21:59:36.021Z,86.14
2022-10-23T22:02:04.813Z,86.43
2022-10-23T22:04:34.989Z,86.36
2022-10-23T22:07:04.343Z,86.50
2022-10-23T22:09:34.357Z,86.35
2022-10-23T22:12:03.030Z,86.42
2022-10-23T22:14:31.221Z,86.44
2022-10-23T22:16:59.993Z,86.22
2022-10-23T22:19:28.333Z,86.42
2022-10-23T22:21:58.203Z,86.35
2022-10-23T22:24:26.926Z,86.02
2022-10-23T22:26:57.129Z,86.31
2022-10-23T22:29:27.950Z,86.14
2022-10-23T22:31:56.807Z,86.30
2022-10-23T22:34:51.405Z,85.86
2022-10-23T22:37:17.519Z,85.93
2022-10-23T22:39:45.864Z,85.87
2022-10-23T22:42:14.236Z,85.53
2022-10-23T22:44:42.465Z,85.36
2022-10-23T22:47:11.747Z,85.31
2022-10-23T22:49:40.002Z,85.70
2022-10-23T22:52:08.361Z,85.26
2022-10-23T22:54:38.033Z,85.17
2022-10-23T22:57:06.336Z,84.95
2022-10-23T22:59:34.636Z,85.18
2022-10-23T23:02:03.386Z,85.06
2022-10-23T23:04:39.347Z,84.97
2022-10-23T23:07:10.863Z,85.26
2022-10-23T23:09:42.127Z,85.03
2022-10-23T23:12:12.381Z,84.86
2022-10-23T23:14:41.710Z,85.26
2022-10-23T23:17:11.090Z,84.81
2022-10-23T23:19:40.025Z,84.90
2022-10-23T23:22:08.386Z,85.01
2022-10-23T23:24:36.719Z,85.07
2022-10-23T23:27:06.346Z,84.71
2022-10-23T23:29:34.897Z,84.77
2022-10-23T23:32:06.185Z,84.76
2022-10-23T23:34:34.457Z,84.49
2022-10-23T23:37:02.886Z,84.27
2022-10-23T23:39:31.311Z,84.37
2022-10-23T23:41:59.530Z,84.45
2022-10-23T23:44:29.297Z,84.70
2022-10-23T23:46:57.538Z,84.79
2022-10-23T23:49:25.918Z,84.38
2022-10-23T23:51:54.214Z,84.86
2022-10-23T23:54:22.574Z,84.56
2022-10-23T23:56:50.815Z,84.77
2022-10-23T23:59:19.014Z,84.76
